sensor_id;sensor_type;location;lat;lon;timestamp;temperature;humidity
18506;DHT22;9382;53.242;10.438;2022-07-01T00:02:13;22.00;99.90
18506;DHT22;9382;53.242;10.438;2022-07-01T00:04:41;22.10;99.90
18506;DHT22;9382;53.242;10.438;2022-07-01T00:07:08;22.20;99.90
18506;DHT22;9382;53.242;10.438;2022-07-01T00:09:37;22.30;99.90
18506;DHT22;9382;53.242;10.438;2022-07-01T00:12:04;22.30;99.90
18506;DHT22;9382;53.242;10.438;2022-07-01T00:14:32;22.30;99.90
18506;DHT22;9382;53.242;10.438;2022-07-01T00:16:59;22.40;99.90
18506;DHT22;9382;53.242;10.438;2022-07-01T00:19:25;22.40;99.90
18506;DHT22;9382;53.242;10.438;2022-07-01T00:21:54;22.50;99.90
18506;DHT22;9382;53.242;10.438;2022-07-01T00:24:20;22.50;99.90
18506;DHT22;9382;53.242;10.438;2022-07-01T00:26:47;22.50;99.90
18506;DHT22;9382;53.242;10.438;2022-07-01T00:29:14;22.60;99.90
18506;DHT22;9382;53.242;10.438;2022-07-01T00:31:41;22.70;99.90
18506;DHT22;9382;53.242;10.438;2022-07-01T00:34:07;22.80;99.90
18506;DHT22;9382;53.242;10.438;2022-07-01T00:36:34;22.80;99.90
18506;DHT22;9382;53.242;10.438;2022-07-01T00:39:02;22.80;99.90
18506;DHT22;9382;53.242;10.438;2022-07-01T00:41:29;22.80;99.90
18506;DHT22;9382;53.242;10.438;2022-07-01T00:43:56;22.70;99.90
18506;DHT22;9382;53.242;10.438;2022-07-01T00:46:23;22.60;99.90
18506;DHT22;9382;53.242;10.438;2022-07-01T00:48:51;22.60;99.90
18506;DHT22;9382;53.242;10.438;2022-07-01T00:51:18;22.50;99.90
18506;DHT22;9382;53.242;10.438;2022-07-01T00:53:45;22.50;99.90
18506;DHT22;9382;53.242;10.438;2022-07-01T00:56:14;22.50;99.90
18506;DHT22;9382;53.242;10.438;2022-07-01T00:58:41;22.40;99.90
18506;DHT22;9382;53.242;10.438;2022-07-01T01:01:08;22.40;99.90
18506;DHT22;9382;53.242;10.438;2022-07-01T01:03:35;22.30;99.90
18506;DHT22;9382;53.242;10.438;2022-07-01T01:06:03;22.20;99.90
18506;DHT22;9382;53.242;10.438;2022-07-01T01:08:30;22.10;99.90
18506;DHT22;9382;53.242;10.438;2022-07-01T01:10:56;22.00;99.90
18506;DHT22;9382;53.242;10.438;2022-07-01T01:13:25;22.00;99.90
18506;DHT22;9382;53.242;10.438;2022-07-01T01:15:51;21.90;99.90
18506;DHT22;9382;53.242;10.438;2022-07-01T01:18:18;21.80;99.90
18506;DHT22;9382;53.242;10.438;2022-07-01T01:20:46;21.80;99.90
18506;DHT22;9382;53.242;10.438;2022-07-01T01:23:13;21.70;99.90
18506;DHT22;9382;53.242;10.438;2022-07-01T01:25:40;21.70;99.90
18506;DHT22;9382;53.242;10.438;2022-07-01T01:28:07;21.70;99.90
18506;DHT22;9382;53.242;10.438;2022-07-01T01:30:33;21.60;99.90
18506;DHT22;9382;53.242;10.438;2022-07-01T01:33:01;21.50;99.90
18506;DHT22;9382;53.242;10.438;2022-07-01T01:35:27;21.50;99.90
18506;DHT22;9382;53.242;10.438;2022-07-01T01:37:56;21.40;99.90
18506;DHT22;9382;53.242;10.438;2022-07-01T01:40:23;21.30;99.90
18506;DHT22;9382;53.242;10.438;2022-07-01T01:42:49;21.30;99.90
18506;DHT22;9382;53.242;10.438;2022-07-01T01:45:17;21.20;99.90
18506;DHT22;9382;53.242;10.438;2022-07-01T01:47:44;21.20;99.90
18506;DHT22;9382;53.242;10.438;2022-07-01T01:50:12;21.10;99.90
18506;DHT22;9382;53.242;10.438;2022-07-01T01:52:39;21.10;99.90
18506;DHT22;9382;53.242;10.438;2022-07-01T01:55:10;21.00;99.90
18506;DHT22;9382;53.242;10.438;2022-07-01T01:57:36;21.00;99.90
18506;DHT22;9382;53.242;10.438;2022-07-01T02:00:04;20.90;99.90
18506;DHT22;9382;53.242;10.438;2022-07-01T02:02:31;20.90;99.90
18506;DHT22;9382;53.242;10.438;2022-07-01T02:04:59;20.80;99.90
18506;DHT22;9382;53.242;10.438;2022-07-01T02:07:26;20.80;99.90
18506;DHT22;9382;53.242;10.438;2022-07-01T02:09:52;20.70;99.90
18506;DHT22;9382;53.242;10.438;2022-07-01T02:12:20;20.70;99.90
18506;DHT22;9382;53.242;10.438;2022-07-01T02:14:47;20.60;99.90
18506;DHT22;9382;53.242;10.438;2022-07-01T02:17:14;20.60;99.90
18506;DHT22;9382;53.242;10.438;2022-07-01T02:19:40;20.50;99.90
18506;DHT22;9382;53.242;10.438;2022-07-01T02:22:07;20.40;99.90
18506;DHT22;9382;53.242;10.438;2022-07-01T02:24:34;20.30;99.90
18506;DHT22;9382;53.242;10.438;2022-07-01T02:27:01;20.30;99.90
18506;DHT22;9382;53.242;10.438;2022-07-01T02:29:29;20.40;99.90
18506;DHT22;9382;53.242;10.438;2022-07-01T02:31:55;20.30;99.90
18506;DHT22;9382;53.242;10.438;2022-07-01T02:34:22;20.20;99.90
18506;DHT22;9382;53.242;10.438;2022-07-01T02:36:49;20.00;99.90
18506;DHT22;9382;53.242;10.438;2022-07-01T02:39:18;19.90;99.90
18506;DHT22;9382;53.242;10.438;2022-07-01T02:41:45;19.90;99.90
18506;DHT22;9382;53.242;10.438;2022-07-01T02:44:31;19.80;99.90
18506;DHT22;9382;53.242;10.438;2022-07-01T02:46:57;19.70;99.90
18506;DHT22;9382;53.242;10.438;2022-07-01T02:49:24;19.60;99.90
18506;DHT22;9382;53.242;10.438;2022-07-01T02:51:51;19.70;99.90
18506;DHT22;9382;53.242;10.438;2022-07-01T02:54:17;19.60;99.90
18506;DHT22;9382;53.242;10.438;2022-07-01T02:56:45;19.60;99.90
18506;DHT22;9382;53.242;10.438;2022-07-01T02:59:11;19.60;99.90
18506;DHT22;9382;53.242;10.438;2022-07-01T03:01:39;19.60;99.90
18506;DHT22;9382;53.242;10.438;2022-07-01T03:04:06;19.60;99.90
18506;DHT22;9382;53.242;10.438;2022-07-01T03:06:33;19.60;99.90
18506;DHT22;9382;53.242;10.438;2022-07-01T03:09:00;19.60;99.90
18506;DHT22;9382;53.242;10.438;2022-07-01T03:11:27;19.60;99.90
18506;DHT22;9382;53.242;10.438;2022-07-01T03:13:54;19.60;99.90
18506;DHT22;9382;53.242;10.438;2022-07-01T03:16:20;19.60;99.90
18506;DHT22;9382;53.242;10.438;2022-07-01T03:18:48;19.60;99.90
18506;DHT22;9382;53.242;10.438;2022-07-01T03:21:15;19.60;99.90
18506;DHT22;9382;53.242;10.438;2022-07-01T03:23:42;19.60;99.90
18506;DHT22;9382;53.242;10.438;2022-07-01T03:26:08;19.60;99.90
18506;DHT22;9382;53.242;10.438;2022-07-01T03:28:35;19.60;99.90
18506;DHT22;9382;53.242;10.438;2022-07-01T03:31:02;19.50;99.90
18506;DHT22;9382;53.242;10.438;2022-07-01T03:33:28;19.50;99.90
18506;DHT22;9382;53.242;10.438;2022-07-01T03:35:56;19.50;99.90
18506;DHT22;9382;53.242;10.438;2022-07-01T03:38:23;19.50;99.90
18506;DHT22;9382;53.242;10.438;2022-07-01T03:40:50;19.40;99.90
18506;DHT22;9382;53.242;10.438;2022-07-01T03:43:17;19.50;99.90
18506;DHT22;9382;53.242;10.438;2022-07-01T03:45:43;19.50;99.90
18506;DHT22;9382;53.242;10.438;2022-07-01T03:48:10;19.50;99.90
18506;DHT22;9382;53.242;10.438;2022-07-01T03:50:37;19.50;99.90
18506;DHT22;9382;53.242;10.438;2022-07-01T03:53:05;19.40;99.90
18506;DHT22;9382;53.242;10.438;2022-07-01T03:55:50;19.50;99.90
18506;DHT22;9382;53.242;10.438;2022-07-01T03:58:16;19.40;99.90
18506;DHT22;9382;53.242;10.438;2022-07-01T04:00:43;19.40;99.90
18506;DHT22;9382;53.242;10.438;2022-07-01T04:03:10;19.40;99.90
18506;DHT22;9382;53.242;10.438;2022-07-01T04:05:37;19.50;99.90
18506;DHT22;9382;53.242;10.438;2022-07-01T04:08:07;19.40;99.90
18506;DHT22;9382;53.242;10.438;2022-07-01T04:10:37;19.50;99.90
18506;DHT22;9382;53.242;10.438;2022-07-01T04:13:04;19.50;99.90
18506;DHT22;9382;53.242;10.438;2022-07-01T04:15:31;19.50;99.90
18506;DHT22;9382;53.242;10.438;2022-07-01T04:17:58;19.50;99.90
18506;DHT22;9382;53.242;10.438;2022-07-01T04:20:25;19.30;99.90
18506;DHT22;9382;53.242;10.438;2022-07-01T04:22:51;19.20;99.90
18506;DHT22;9382;53.242;10.438;2022-07-01T04:25:18;19.20;99.90
18506;DHT22;9382;53.242;10.438;2022-07-01T04:27:45;19.10;99.90
18506;DHT22;9382;53.242;10.438;2022-07-01T04:30:12;19.00;99.90
18506;DHT22;9382;53.242;10.438;2022-07-01T04:32:39;18.90;99.90
18506;DHT22;9382;53.242;10.438;2022-07-01T04:35:06;19.00;99.90
18506;DHT22;9382;53.242;10.438;2022-07-01T04:37:33;18.90;99.90
18506;DHT22;9382;53.242;10.438;2022-07-01T04:39:59;19.00;99.90
18506;DHT22;9382;53.242;10.438;2022-07-01T04:42:27;18.90;99.90
18506;DHT22;9382;53.242;10.438;2022-07-01T04:44:53;19.00;99.90
18506;DHT22;9382;53.242;10.438;2022-07-01T04:47:20;18.90;99.90
18506;DHT22;9382;53.242;10.438;2022-07-01T04:49:48;18.80;99.90
18506;DHT22;9382;53.242;10.438;2022-07-01T04:52:15;18.60;99.90
18506;DHT22;9382;53.242;10.438;2022-07-01T04:54:42;18.50;99.90
18506;DHT22;9382;53.242;10.438;2022-07-01T04:57:08;18.30;99.90
18506;DHT22;9382;53.242;10.438;2022-07-01T04:59:36;18.30;99.90
18506;DHT22;9382;53.242;10.438;2022-07-01T05:02:03;18.20;99.90
18506;DHT22;9382;53.242;10.438;2022-07-01T05:04:30;18.30;99.90
18506;DHT22;9382;53.242;10.438;2022-07-01T05:06:56;18.20;99.90
18506;DHT22;9382;53.242;10.438;2022-07-01T05:09:23;18.20;99.90
18506;DHT22;9382;53.242;10.438;2022-07-01T05:11:50;18.10;99.90
18506;DHT22;9382;53.242;10.438;2022-07-01T05:14:16;18.00;99.90
18506;DHT22;9382;53.242;10.438;2022-07-01T05:16:44;17.90;99.90
18506;DHT22;9382;53.242;10.438;2022-07-01T05:19:11;17.80;99.90
18506;DHT22;9382;53.242;10.438;2022-07-01T05:21:55;17.90;99.90
18506;DHT22;9382;53.242;10.438;2022-07-01T05:24:22;17.90;99.90
18506;DHT22;9382;53.242;10.438;2022-07-01T05:26:49;17.90;99.90
18506;DHT22;9382;53.242;10.438;2022-07-01T05:29:15;17.90;99.90
18506;DHT22;9382;53.242;10.438;2022-07-01T05:31:42;17.90;99.90
18506;DHT22;9382;53.242;10.438;2022-07-01T05:34:11;17.80;99.90
18506;DHT22;9382;53.242;10.438;2022-07-01T05:36:38;17.70;99.90
18506;DHT22;9382;53.242;10.438;2022-07-01T05:39:05;17.70;99.90
18506;DHT22;9382;53.242;10.438;2022-07-01T05:41:32;17.50;99.90
18506;DHT22;9382;53.242;10.438;2022-07-01T05:43:59;17.40;99.90
18506;DHT22;9382;53.242;10.438;2022-07-01T05:46:26;17.30;99.90
18506;DHT22;9382;53.242;10.438;2022-07-01T05:48:53;17.30;99.90
18506;DHT22;9382;53.242;10.438;2022-07-01T05:51:21;17.30;99.90
18506;DHT22;9382;53.242;10.438;2022-07-01T05:53:48;17.40;99.90
18506;DHT22;9382;53.242;10.438;2022-07-01T05:56:14;17.40;99.90
18506;DHT22;9382;53.242;10.438;2022-07-01T05:58:41;17.30;99.90
18506;DHT22;9382;53.242;10.438;2022-07-01T06:01:08;17.20;99.90
18506;DHT22;9382;53.242;10.438;2022-07-01T06:03:34;17.20;99.90
18506;DHT22;9382;53.242;10.438;2022-07-01T06:06:01;17.20;99.90
18506;DHT22;9382;53.242;10.438;2022-07-01T06:08:29;17.20;99.90
18506;DHT22;9382;53.242;10.438;2022-07-01T06:10:56;17.20;99.90
18506;DHT22;9382;53.242;10.438;2022-07-01T06:13:23;17.20;99.90
18506;DHT22;9382;53.242;10.438;2022-07-01T06:15:50;17.30;99.90
18506;DHT22;9382;53.242;10.438;2022-07-01T06:18:16;17.50;99.90
18506;DHT22;9382;53.242;10.438;2022-07-01T06:20:43;17.50;99.90
18506;DHT22;9382;53.242;10.438;2022-07-01T06:23:10;17.50;99.90
18506;DHT22;9382;53.242;10.438;2022-07-01T06:25:38;17.30;99.90
18506;DHT22;9382;53.242;10.438;2022-07-01T06:28:05;17.20;99.90
18506;DHT22;9382;53.242;10.438;2022-07-01T06:30:32;17.20;99.90
18506;DHT22;9382;53.242;10.438;2022-07-01T06:32:58;17.00;99.90
18506;DHT22;9382;53.242;10.438;2022-07-01T06:35:25;17.00;99.90
18506;DHT22;9382;53.242;10.438;2022-07-01T06:37:52;16.90;99.90
18506;DHT22;9382;53.242;10.438;2022-07-01T06:40:18;17.00;99.90
18506;DHT22;9382;53.242;10.438;2022-07-01T06:42:46;17.00;99.90
18506;DHT22;9382;53.242;10.438;2022-07-01T06:45:13;17.10;99.90
18506;DHT22;9382;53.242;10.438;2022-07-01T06:47:40;17.20;99.90
18506;DHT22;9382;53.242;10.438;2022-07-01T06:50:07;17.20;99.90
18506;DHT22;9382;53.242;10.438;2022-07-01T06:52:34;17.10;99.90
18506;DHT22;9382;53.242;10.438;2022-07-01T06:55:01;17.10;99.90
18506;DHT22;9382;53.242;10.438;2022-07-01T06:57:28;17.10;99.90
18506;DHT22;9382;53.242;10.438;2022-07-01T06:59:56;17.10;99.90
18506;DHT22;9382;53.242;10.438;2022-07-01T07:02:22;17.00;99.90
18506;DHT22;9382;53.242;10.438;2022-07-01T07:04:49;17.10;99.90
18506;DHT22;9382;53.242;10.438;2022-07-01T07:07:19;17.10;99.90
18506;DHT22;9382;53.242;10.438;2022-07-01T07:09:46;17.20;99.90
18506;DHT22;9382;53.242;10.438;2022-07-01T07:12:12;17.30;99.90
18506;DHT22;9382;53.242;10.438;2022-07-01T07:14:39;17.30;99.90
18506;DHT22;9382;53.242;10.438;2022-07-01T07:17:07;17.40;99.90
18506;DHT22;9382;53.242;10.438;2022-07-01T07:19:34;17.40;99.90
18506;DHT22;9382;53.242;10.438;2022-07-01T07:22:00;17.40;99.90
18506;DHT22;9382;53.242;10.438;2022-07-01T07:24:27;17.40;99.90
18506;DHT22;9382;53.242;10.438;2022-07-01T07:26:54;17.20;99.90
18506;DHT22;9382;53.242;10.438;2022-07-01T07:29:20;17.00;99.90
18506;DHT22;9382;53.242;10.438;2022-07-01T07:31:47;16.90;99.90
18506;DHT22;9382;53.242;10.438;2022-07-01T07:34:15;16.80;99.90
18506;DHT22;9382;53.242;10.438;2022-07-01T07:36:42;16.60;99.90
18506;DHT22;9382;53.242;10.438;2022-07-01T07:39:08;16.70;99.90
18506;DHT22;9382;53.242;10.438;2022-07-01T07:41:35;16.70;99.90
18506;DHT22;9382;53.242;10.438;2022-07-01T07:44:02;16.60;99.90
18506;DHT22;9382;53.242;10.438;2022-07-01T07:46:28;16.60;99.90
18506;DHT22;9382;53.242;10.438;2022-07-01T07:48:55;16.60;99.90
18506;DHT22;9382;53.242;10.438;2022-07-01T07:51:23;16.50;99.90
18506;DHT22;9382;53.242;10.438;2022-07-01T07:53:50;16.40;99.90
18506;DHT22;9382;53.242;10.438;2022-07-01T07:56:17;16.40;99.90
18506;DHT22;9382;53.242;10.438;2022-07-01T07:58:43;16.30;99.90
18506;DHT22;9382;53.242;10.438;2022-07-01T08:01:10;16.30;99.90
18506;DHT22;9382;53.242;10.438;2022-07-01T08:03:37;16.20;99.90
18506;DHT22;9382;53.242;10.438;2022-07-01T08:06:04;16.30;99.90
18506;DHT22;9382;53.242;10.438;2022-07-01T08:08:32;16.20;99.90
18506;DHT22;9382;53.242;10.438;2022-07-01T08:10:59;16.40;99.90
18506;DHT22;9382;53.242;10.438;2022-07-01T08:13:26;16.50;99.90
18506;DHT22;9382;53.242;10.438;2022-07-01T08:15:53;16.30;99.90
18506;DHT22;9382;53.242;10.438;2022-07-01T08:18:19;16.40;99.90
18506;DHT22;9382;53.242;10.438;2022-07-01T08:20:46;16.50;99.90
18506;DHT22;9382;53.242;10.438;2022-07-01T08:23:13;16.60;99.90
18506;DHT22;9382;53.242;10.438;2022-07-01T08:25:41;16.70;99.90
18506;DHT22;9382;53.242;10.438;2022-07-01T08:28:08;16.70;99.90
18506;DHT22;9382;53.242;10.438;2022-07-01T08:30:34;16.80;99.90
18506;DHT22;9382;53.242;10.438;2022-07-01T08:33:01;16.70;99.90
18506;DHT22;9382;53.242;10.438;2022-07-01T08:35:28;16.80;99.90
18506;DHT22;9382;53.242;10.438;2022-07-01T08:37:56;16.70;99.90
18506;DHT22;9382;53.242;10.438;2022-07-01T08:40:24;16.70;99.90
18506;DHT22;9382;53.242;10.438;2022-07-01T08:42:56;16.90;99.90
18506;DHT22;9382;53.242;10.438;2022-07-01T08:45:25;16.90;99.90
18506;DHT22;9382;53.242;10.438;2022-07-01T08:47:53;16.80;99.90
18506;DHT22;9382;53.242;10.438;2022-07-01T08:50:23;16.80;99.90
18506;DHT22;9382;53.242;10.438;2022-07-01T08:52:50;16.80;99.90
18506;DHT22;9382;53.242;10.438;2022-07-01T08:55:17;16.90;99.90
18506;DHT22;9382;53.242;10.438;2022-07-01T08:57:43;17.00;99.90
18506;DHT22;9382;53.242;10.438;2022-07-01T09:00:12;17.00;99.90
18506;DHT22;9382;53.242;10.438;2022-07-01T09:02:54;17.00;99.90
18506;DHT22;9382;53.242;10.438;2022-07-01T09:05:22;17.20;99.90
18506;DHT22;9382;53.242;10.438;2022-07-01T09:07:55;17.30;99.90
18506;DHT22;9382;53.242;10.438;2022-07-01T09:10:22;17.30;99.90
18506;DHT22;9382;53.242;10.438;2022-07-01T09:12:49;17.40;99.90
18506;DHT22;9382;53.242;10.438;2022-07-01T09:15:21;17.20;99.90
18506;DHT22;9382;53.242;10.438;2022-07-01T09:17:50;17.20;99.90
18506;DHT22;9382;53.242;10.438;2022-07-01T09:20:24;17.30;99.90
18506;DHT22;9382;53.242;10.438;2022-07-01T09:23:03;17.10;99.90
18506;DHT22;9382;53.242;10.438;2022-07-01T09:25:33;17.00;99.90
18506;DHT22;9382;53.242;10.438;2022-07-01T09:28:04;17.00;99.90
18506;DHT22;9382;53.242;10.438;2022-07-01T09:30:32;16.90;99.90
18506;DHT22;9382;53.242;10.438;2022-07-01T09:33:12;16.90;99.90
18506;DHT22;9382;53.242;10.438;2022-07-01T09:35:40;16.90;99.90
18506;DHT22;9382;53.242;10.438;2022-07-01T09:38:10;16.80;99.90
18506;DHT22;9382;53.242;10.438;2022-07-01T09:40:48;16.80;99.90
18506;DHT22;9382;53.242;10.438;2022-07-01T09:43:17;16.70;99.90
18506;DHT22;9382;53.242;10.438;2022-07-01T09:45:59;16.60;99.90
18506;DHT22;9382;53.242;10.438;2022-07-01T09:48:41;16.50;99.90
18506;DHT22;9382;53.242;10.438;2022-07-01T09:51:09;16.50;99.90
18506;DHT22;9382;53.242;10.438;2022-07-01T09:53:36;16.60;99.90
18506;DHT22;9382;53.242;10.438;2022-07-01T09:56:04;16.60;99.90
18506;DHT22;9382;53.242;10.438;2022-07-01T09:58:31;16.60;99.90
18506;DHT22;9382;53.242;10.438;2022-07-01T10:00:59;16.50;99.90
18506;DHT22;9382;53.242;10.438;2022-07-01T10:03:26;16.60;99.90
18506;DHT22;9382;53.242;10.438;2022-07-01T10:05:56;16.60;99.90
18506;DHT22;9382;53.242;10.438;2022-07-01T10:08:41;16.70;99.90
18506;DHT22;9382;53.242;10.438;2022-07-01T10:11:32;16.70;99.90
18506;DHT22;9382;53.242;10.438;2022-07-01T10:14:04;16.60;99.90
18506;DHT22;9382;53.242;10.438;2022-07-01T10:16:32;16.60;99.90
18506;DHT22;9382;53.242;10.438;2022-07-01T10:19:06;16.70;99.90
18506;DHT22;9382;53.242;10.438;2022-07-01T10:21:51;16.70;99.90
18506;DHT22;9382;53.242;10.438;2022-07-01T10:24:20;16.60;99.90
18506;DHT22;9382;53.242;10.438;2022-07-01T10:26:47;16.50;99.90
18506;DHT22;9382;53.242;10.438;2022-07-01T10:29:31;16.50;99.90
18506;DHT22;9382;53.242;10.438;2022-07-01T10:32:08;16.50;99.90
18506;DHT22;9382;53.242;10.438;2022-07-01T10:34:38;16.40;99.90
18506;DHT22;9382;53.242;10.438;2022-07-01T10:37:06;16.50;99.90
18506;DHT22;9382;53.242;10.438;2022-07-01T10:39:56;16.50;99.90
18506;DHT22;9382;53.242;10.438;2022-07-01T10:42:31;16.40;99.90
18506;DHT22;9382;53.242;10.438;2022-07-01T10:45:06;16.40;99.90
18506;DHT22;9382;53.242;10.438;2022-07-01T10:47:35;16.40;99.90
18506;DHT22;9382;53.242;10.438;2022-07-01T10:50:08;16.40;99.90
18506;DHT22;9382;53.242;10.438;2022-07-01T10:52:35;16.40;99.90
18506;DHT22;9382;53.242;10.438;2022-07-01T10:55:03;16.30;99.90
18506;DHT22;9382;53.242;10.438;2022-07-01T10:57:37;16.20;99.90
18506;DHT22;9382;53.242;10.438;2022-07-01T11:00:29;16.20;99.90
18506;DHT22;9382;53.242;10.438;2022-07-01T11:03:21;16.30;99.90
18506;DHT22;9382;53.242;10.438;2022-07-01T11:05:51;16.40;99.90
18506;DHT22;9382;53.242;10.438;2022-07-01T11:08:18;16.60;99.90
18506;DHT22;9382;53.242;10.438;2022-07-01T11:10:50;16.60;99.90
18506;DHT22;9382;53.242;10.438;2022-07-01T11:13:17;16.70;99.90
18506;DHT22;9382;53.242;10.438;2022-07-01T11:15:46;16.50;99.90
18506;DHT22;9382;53.242;10.438;2022-07-01T11:18:15;16.40;99.90
18506;DHT22;9382;53.242;10.438;2022-07-01T11:20:42;16.40;99.90
18506;DHT22;9382;53.242;10.438;2022-07-01T11:23:09;16.50;99.90
18506;DHT22;9382;53.242;10.438;2022-07-01T11:25:36;16.40;99.90
18506;DHT22;9382;53.242;10.438;2022-07-01T11:28:03;16.50;99.90
18506;DHT22;9382;53.242;10.438;2022-07-01T11:30:29;16.50;99.90
18506;DHT22;9382;53.242;10.438;2022-07-01T11:32:58;16.60;99.90
18506;DHT22;9382;53.242;10.438;2022-07-01T11:35:28;16.70;99.90
18506;DHT22;9382;53.242;10.438;2022-07-01T11:38:15;16.80;99.90
18506;DHT22;9382;53.242;10.438;2022-07-01T11:41:02;16.70;99.90
18506;DHT22;9382;53.242;10.438;2022-07-01T11:43:30;16.80;99.90
18506;DHT22;9382;53.242;10.438;2022-07-01T11:46:00;16.70;99.90
18506;DHT22;9382;53.242;10.438;2022-07-01T11:48:36;16.70;99.90
18506;DHT22;9382;53.242;10.438;2022-07-01T11:51:09;16.80;99.90
18506;DHT22;9382;53.242;10.438;2022-07-01T11:53:38;16.90;99.90
18506;DHT22;9382;53.242;10.438;2022-07-01T11:56:05;17.00;99.90
18506;DHT22;9382;53.242;10.438;2022-07-01T11:58:42;17.10;99.90
18506;DHT22;9382;53.242;10.438;2022-07-01T12:01:09;17.10;99.90
18506;DHT22;9382;53.242;10.438;2022-07-01T12:03:36;17.10;99.90
18506;DHT22;9382;53.242;10.438;2022-07-01T12:06:04;17.20;99.90
18506;DHT22;9382;53.242;10.438;2022-07-01T12:08:32;17.20;99.90
18506;DHT22;9382;53.242;10.438;2022-07-01T12:10:59;17.20;99.90
18506;DHT22;9382;53.242;10.438;2022-07-01T12:13:26;17.20;99.90
18506;DHT22;9382;53.242;10.438;2022-07-01T12:15:53;17.40;99.90
18506;DHT22;9382;53.242;10.438;2022-07-01T12:18:20;17.50;99.90
18506;DHT22;9382;53.242;10.438;2022-07-01T12:20:48;17.50;99.90
18506;DHT22;9382;53.242;10.438;2022-07-01T12:23:16;17.60;99.90
18506;DHT22;9382;53.242;10.438;2022-07-01T12:25:48;17.60;99.90
18506;DHT22;9382;53.242;10.438;2022-07-01T12:28:29;17.70;99.90
18506;DHT22;9382;53.242;10.438;2022-07-01T12:31:04;17.80;99.90
18506;DHT22;9382;53.242;10.438;2022-07-01T12:33:33;17.80;99.90
18506;DHT22;9382;53.242;10.438;2022-07-01T12:36:02;17.80;99.90
18506;DHT22;9382;53.242;10.438;2022-07-01T12:38:29;17.80;99.90
18506;DHT22;9382;53.242;10.438;2022-07-01T12:40:57;17.90;99.90
18506;DHT22;9382;53.242;10.438;2022-07-01T12:43:26;17.80;99.90
18506;DHT22;9382;53.242;10.438;2022-07-01T12:45:56;17.90;99.90
18506;DHT22;9382;53.242;10.438;2022-07-01T12:48:23;18.00;99.90
18506;DHT22;9382;53.242;10.438;2022-07-01T12:50:52;18.00;99.90
18506;DHT22;9382;53.242;10.438;2022-07-01T12:53:21;18.00;99.90
18506;DHT22;9382;53.242;10.438;2022-07-01T12:55:50;18.30;99.90
18506;DHT22;9382;53.242;10.438;2022-07-01T12:58:20;18.60;99.90
18506;DHT22;9382;53.242;10.438;2022-07-01T13:00:49;18.90;99.90
18506;DHT22;9382;53.242;10.438;2022-07-01T13:03:19;19.00;99.90
18506;DHT22;9382;53.242;10.438;2022-07-01T13:05:46;18.80;99.90
18506;DHT22;9382;53.242;10.438;2022-07-01T13:08:13;18.70;99.90
18506;DHT22;9382;53.242;10.438;2022-07-01T13:10:39;19.20;99.90
18506;DHT22;9382;53.242;10.438;2022-07-01T13:13:06;20.10;99.90
18506;DHT22;9382;53.242;10.438;2022-07-01T13:15:35;20.50;99.90
18506;DHT22;9382;53.242;10.438;2022-07-01T13:18:02;21.20;99.90
18506;DHT22;9382;53.242;10.438;2022-07-01T13:20:29;21.60;99.90
18506;DHT22;9382;53.242;10.438;2022-07-01T13:22:55;21.60;99.90
18506;DHT22;9382;53.242;10.438;2022-07-01T13:25:22;21.50;99.90
18506;DHT22;9382;53.242;10.438;2022-07-01T13:27:49;21.50;99.90
18506;DHT22;9382;53.242;10.438;2022-07-01T13:30:17;21.80;99.90
18506;DHT22;9382;53.242;10.438;2022-07-01T13:32:45;22.60;99.90
18506;DHT22;9382;53.242;10.438;2022-07-01T13:35:12;22.50;99.90
18506;DHT22;9382;53.242;10.438;2022-07-01T13:37:40;22.60;99.90
18506;DHT22;9382;53.242;10.438;2022-07-01T13:40:08;23.20;99.90
18506;DHT22;9382;53.242;10.438;2022-07-01T13:42:35;23.70;99.90
18506;DHT22;9382;53.242;10.438;2022-07-01T13:45:02;23.80;99.90
18506;DHT22;9382;53.242;10.438;2022-07-01T13:47:29;24.40;99.90
18506;DHT22;9382;53.242;10.438;2022-07-01T13:49:57;24.20;99.90
18506;DHT22;9382;53.242;10.438;2022-07-01T13:52:24;23.70;99.90
18506;DHT22;9382;53.242;10.438;2022-07-01T13:54:53;23.20;99.90
18506;DHT22;9382;53.242;10.438;2022-07-01T13:57:20;24.30;99.90
18506;DHT22;9382;53.242;10.438;2022-07-01T13:59:47;24.80;99.90
18506;DHT22;9382;53.242;10.438;2022-07-01T14:02:14;24.20;99.90
18506;DHT22;9382;53.242;10.438;2022-07-01T14:04:43;23.30;99.90
18506;DHT22;9382;53.242;10.438;2022-07-01T14:07:11;22.50;99.90
18506;DHT22;9382;53.242;10.438;2022-07-01T14:09:38;21.60;99.90
18506;DHT22;9382;53.242;10.438;2022-07-01T14:12:06;20.90;99.90
18506;DHT22;9382;53.242;10.438;2022-07-01T14:14:33;20.60;99.90
18506;DHT22;9382;53.242;10.438;2022-07-01T14:17:00;20.40;99.90
18506;DHT22;9382;53.242;10.438;2022-07-01T14:19:26;20.20;99.90
18506;DHT22;9382;53.242;10.438;2022-07-01T14:21:53;20.00;99.90
18506;DHT22;9382;53.242;10.438;2022-07-01T14:24:22;19.60;99.90
18506;DHT22;9382;53.242;10.438;2022-07-01T14:26:49;19.20;99.90
18506;DHT22;9382;53.242;10.438;2022-07-01T14:29:16;18.90;99.90
18506;DHT22;9382;53.242;10.438;2022-07-01T14:31:42;18.70;99.90
18506;DHT22;9382;53.242;10.438;2022-07-01T14:34:09;18.50;99.90
18506;DHT22;9382;53.242;10.438;2022-07-01T14:36:36;18.40;99.90
18506;DHT22;9382;53.242;10.438;2022-07-01T14:39:03;18.30;99.90
18506;DHT22;9382;53.242;10.438;2022-07-01T14:41:31;18.30;99.90
18506;DHT22;9382;53.242;10.438;2022-07-01T14:43:57;18.20;99.90
18506;DHT22;9382;53.242;10.438;2022-07-01T14:46:24;18.20;99.90
18506;DHT22;9382;53.242;10.438;2022-07-01T14:48:51;18.10;99.90
18506;DHT22;9382;53.242;10.438;2022-07-01T14:51:17;18.10;99.90
18506;DHT22;9382;53.242;10.438;2022-07-01T14:53:44;18.10;99.90
18506;DHT22;9382;53.242;10.438;2022-07-01T14:56:11;18.00;99.90
18506;DHT22;9382;53.242;10.438;2022-07-01T14:58:39;18.00;99.90
18506;DHT22;9382;53.242;10.438;2022-07-01T15:01:08;18.10;99.90
18506;DHT22;9382;53.242;10.438;2022-07-01T15:03:35;18.10;99.90
18506;DHT22;9382;53.242;10.438;2022-07-01T15:06:02;18.10;99.90
18506;DHT22;9382;53.242;10.438;2022-07-01T15:08:29;18.20;99.90
18506;DHT22;9382;53.242;10.438;2022-07-01T15:10:55;18.30;99.90
18506;DHT22;9382;53.242;10.438;2022-07-01T15:13:28;18.40;99.90
18506;DHT22;9382;53.242;10.438;2022-07-01T15:15:56;18.50;99.90
18506;DHT22;9382;53.242;10.438;2022-07-01T15:18:24;18.60;99.90
18506;DHT22;9382;53.242;10.438;2022-07-01T15:20:51;18.90;99.90
18506;DHT22;9382;53.242;10.438;2022-07-01T15:23:18;19.00;99.90
18506;DHT22;9382;53.242;10.438;2022-07-01T15:25:45;19.10;99.90
18506;DHT22;9382;53.242;10.438;2022-07-01T15:28:12;19.00;99.90
18506;DHT22;9382;53.242;10.438;2022-07-01T15:30:39;19.00;99.90
18506;DHT22;9382;53.242;10.438;2022-07-01T15:33:08;19.00;99.90
18506;DHT22;9382;53.242;10.438;2022-07-01T15:35:35;19.00;99.90
18506;DHT22;9382;53.242;10.438;2022-07-01T15:38:01;19.00;99.90